Burton City, Ohio
Current Conditions -  °F | °C
As of 11:56 PM on Monday 20 Oct 2014 (Local Time) from KBJJ Reporting Station
Haze Haze  
Wind Chill: 52°   Ceiling: 1000
Heat Index: 52°   Visibility: 6mi
Dew Point: 50°   Wind: 6mph
Humidity: 93%   Direction: 250°WSW
Pressure: 29.87"   Gusts: NA
Location:  40.8369°N, 81.7632°W
Report Text: KBJJ 210356Z AUTO 25005KT 6SM BR BKN010 OVC024 11/10 A2987 RMK AO2 RAB0259E19B24E35 CIG 007V014 SLP114 P0001 T01110100 TSNO
Loading
Personal Weather Stations






























Interactive Weather Map New forecast layout! Learn more

10-Day Weather Forecast

Advertisements
Track Severe Weather on mobile